AAL1223 KLAX-KORD
Flight info
| Callsign | AAL1223 |
|---|---|
| Flight time | 3h 13m |
| Altitude | 35000 |
| Route | DOTSS2 CLEEE PKE J96 CIM SLN IRK BENKY6 |
| Aircraft | A321/M-SDE3FGHIRWY/LB1 |
Departure
| Time | 2026-04-26 00:14 |
|---|---|
| Airport | Los Angeles International Airport (KLAX) |
Arrival
| Time | 2026-04-26 03:27 |
|---|---|
| Airport | Chicago O'Hare International Airport (KORD) |
| Time | Latitude | Longitude | Altitude | Speed | Heading |
|---|---|---|---|---|---|
| 2026-04-25 23:43 | 33.93979 | -118.40739 | 125 ft | 0 kts | 83° |
| 2026-04-26 00:02 | 33.93979 | -118.40741 | 135 ft | 2 kts | 83° |
| 2026-04-26 00:02 | 33.93977 | -118.40772 | 125 ft | 4 kts | 96° |
| 2026-04-26 00:02 | 33.93983 | -118.40802 | 122 ft | 4 kts | 123° |
| 2026-04-26 00:03 | 33.94000 | -118.40819 | 124 ft | 2 kts | 173° |
| 2026-04-26 00:03 | 33.94001 | -118.40819 | 122 ft | 0 kts | 173° |
| 2026-04-26 00:06 | 33.93995 | -118.40819 | 124 ft | 1 kts | 173° |
| 2026-04-26 00:06 | 33.93982 | -118.40817 | 122 ft | 2 kts | 173° |
| 2026-04-26 00:07 | 33.93975 | -118.40816 | 123 ft | 1 kts | 173° |
| 2026-04-26 00:07 | 33.93968 | -118.40814 | 122 ft | 2 kts | 173° |
| 2026-04-26 00:07 | 33.93955 | -118.40813 | 123 ft | 0 kts | 173° |
| 2026-04-26 00:08 | 33.93947 | -118.40811 | 122 ft | 5 kts | 173° |
| 2026-04-26 00:08 | 33.93895 | -118.40788 | 120 ft | 9 kts | 142° |
| 2026-04-26 00:08 | 33.93842 | -118.40737 | 124 ft | 10 kts | 151° |
| 2026-04-26 00:08 | 33.93813 | -118.40663 | 123 ft | 11 kts | 90° |
| 2026-04-26 00:09 | 33.93821 | -118.40569 | 123 ft | 12 kts | 83° |
| 2026-04-26 00:09 | 33.93828 | -118.40495 | 122 ft | 8 kts | 83° |
| 2026-04-26 00:09 | 33.93835 | -118.40421 | 126 ft | 11 kts | 83° |
| 2026-04-26 00:09 | 33.93848 | -118.40297 | 126 ft | 19 kts | 83° |
| 2026-04-26 00:10 | 33.93865 | -118.40133 | 122 ft | 20 kts | 83° |
| 2026-04-26 00:10 | 33.93882 | -118.39964 | 126 ft | 21 kts | 83° |
| 2026-04-26 00:10 | 33.93900 | -118.39790 | 124 ft | 21 kts | 83° |
| 2026-04-26 00:10 | 33.93918 | -118.39615 | 126 ft | 22 kts | 83° |
| 2026-04-26 00:11 | 33.93936 | -118.39432 | 123 ft | 22 kts | 83° |
| 2026-04-26 00:11 | 33.93956 | -118.39246 | 122 ft | 23 kts | 83° |
| 2026-04-26 00:11 | 33.93976 | -118.39055 | 126 ft | 23 kts | 83° |
| 2026-04-26 00:11 | 33.93995 | -118.38860 | 126 ft | 24 kts | 83° |
| 2026-04-26 00:12 | 33.94015 | -118.38661 | 124 ft | 24 kts | 83° |
| 2026-04-26 00:12 | 33.94036 | -118.38459 | 125 ft | 25 kts | 83° |
| 2026-04-26 00:12 | 33.94057 | -118.38258 | 123 ft | 20 kts | 83° |
| 2026-04-26 00:12 | 33.94073 | -118.38099 | 125 ft | 16 kts | 83° |
| 2026-04-26 00:13 | 33.94065 | -118.38016 | 122 ft | 8 kts | 136° |
| 2026-04-26 00:13 | 33.94008 | -118.37995 | 123 ft | 7 kts | 174° |
| 2026-04-26 00:13 | 33.93989 | -118.38011 | 122 ft | 4 kts | 240° |
| 2026-04-26 00:13 | 33.93986 | -118.38078 | 123 ft | 26 kts | 274° |
| 2026-04-26 00:14 | 33.93925 | -118.38590 | 122 ft | 95 kts | 263° |
| 2026-04-26 00:14 | 33.93820 | -118.39611 | 126 ft | 148 kts | 263° |
| 2026-04-26 00:14 | 33.93691 | -118.40918 | 591 ft | 156 kts | 262° |
| 2026-04-26 00:14 | 33.93558 | -118.42222 | 1266 ft | 158 kts | 262° |
| 2026-04-26 00:15 | 33.93422 | -118.43542 | 1902 ft | 162 kts | 262° |
| 2026-04-26 00:15 | 33.93272 | -118.44925 | 2166 ft | 178 kts | 259° |
| 2026-04-26 00:15 | 33.92794 | -118.46391 | 2299 ft | 201 kts | 239° |
| 2026-04-26 00:15 | 33.91889 | -118.47817 | 2430 ft | 228 kts | 233° |
| 2026-04-26 00:16 | 33.90861 | -118.49380 | 2808 ft | 245 kts | 232° |
| 2026-04-26 00:16 | 33.89763 | -118.50986 | 3526 ft | 250 kts | 231° |
| 2026-04-26 00:16 | 33.88633 | -118.52594 | 4279 ft | 254 kts | 231° |
| 2026-04-26 00:16 | 33.87456 | -118.54196 | 4982 ft | 259 kts | 224° |
| 2026-04-26 00:17 | 33.85920 | -118.55350 | 5697 ft | 265 kts | 201° |
| 2026-04-26 00:17 | 33.84083 | -118.55621 | 6428 ft | 272 kts | 176° |
| 2026-04-26 00:17 | 33.82213 | -118.55206 | 7152 ft | 275 kts | 172° |
| 2026-04-26 00:17 | 33.80365 | -118.54750 | 7871 ft | 276 kts | 171° |
| 2026-04-26 00:18 | 33.78476 | -118.54275 | 8609 ft | 278 kts | 172° |
| 2026-04-26 00:18 | 33.76577 | -118.53794 | 9345 ft | 280 kts | 172° |
| 2026-04-26 00:18 | 33.74663 | -118.53311 | 10080 ft | 282 kts | 172° |
| 2026-04-26 00:18 | 33.72727 | -118.52605 | 10383 ft | 305 kts | 158° |
| 2026-04-26 00:19 | 33.70874 | -118.51149 | 10518 ft | 333 kts | 142° |
| 2026-04-26 00:19 | 33.69260 | -118.49007 | 10664 ft | 361 kts | 128° |
| 2026-04-26 00:19 | 33.68047 | -118.46286 | 11102 ft | 379 kts | 115° |
| 2026-04-26 00:19 | 33.67137 | -118.43256 | 11628 ft | 391 kts | 113° |
| 2026-04-26 00:20 | 33.66203 | -118.40156 | 12043 ft | 404 kts | 113° |
| 2026-04-26 00:20 | 33.65258 | -118.36997 | 13027 ft | 402 kts | 112° |
| 2026-04-26 00:20 | 33.64592 | -118.33714 | 13752 ft | 411 kts | 102° |
| 2026-04-26 00:20 | 33.64427 | -118.30251 | 14249 ft | 419 kts | 93° |
| 2026-04-26 00:21 | 33.64445 | -118.26738 | 14782 ft | 423 kts | 93° |
| 2026-04-26 00:21 | 33.64460 | -118.23196 | 15309 ft | 426 kts | 93° |
| 2026-04-26 00:21 | 33.64470 | -118.19631 | 15861 ft | 429 kts | 93° |
| 2026-04-26 00:21 | 33.64475 | -118.16032 | 16403 ft | 433 kts | 94° |
| 2026-04-26 00:22 | 33.64473 | -118.12410 | 16934 ft | 436 kts | 94° |
| 2026-04-26 00:22 | 33.64466 | -118.08752 | 17460 ft | 440 kts | 94° |
| 2026-04-26 00:22 | 33.64458 | -118.05122 | 17968 ft | 444 kts | 94° |
| 2026-04-26 00:22 | 33.64450 | -118.01403 | 18439 ft | 447 kts | 94° |
| 2026-04-26 00:23 | 33.64444 | -117.97654 | 18861 ft | 451 kts | 94° |
| 2026-04-26 00:23 | 33.64439 | -117.93870 | 19263 ft | 455 kts | 95° |
| 2026-04-26 00:23 | 33.64431 | -117.90053 | 19610 ft | 461 kts | 95° |
| 2026-04-26 00:23 | 33.64420 | -117.86185 | 19988 ft | 465 kts | 95° |
| 2026-04-26 00:24 | 33.64414 | -117.82297 | 20401 ft | 468 kts | 94° |
| 2026-04-26 00:24 | 33.64680 | -117.78368 | 20799 ft | 477 kts | 84° |
| 2026-04-26 00:24 | 33.65388 | -117.74449 | 21182 ft | 483 kts | 80° |
| 2026-04-26 00:24 | 33.66146 | -117.70562 | 21569 ft | 486 kts | 81° |
| 2026-04-26 00:25 | 33.66912 | -117.66603 | 21969 ft | 489 kts | 81° |
| 2026-04-26 00:25 | 33.67678 | -117.62612 | 22379 ft | 493 kts | 81° |
| 2026-04-26 00:25 | 33.68450 | -117.58582 | 22775 ft | 496 kts | 81° |
| 2026-04-26 00:25 | 33.69223 | -117.54541 | 23171 ft | 499 kts | 81° |
| 2026-04-26 00:26 | 33.70004 | -117.50468 | 23538 ft | 502 kts | 81° |
| 2026-04-26 00:26 | 33.70787 | -117.46361 | 23821 ft | 505 kts | 81° |
| 2026-04-26 00:26 | 33.71567 | -117.42249 | 24117 ft | 507 kts | 81° |
| 2026-04-26 00:26 | 33.72341 | -117.38166 | 24402 ft | 509 kts | 81° |
| 2026-04-26 00:27 | 33.73129 | -117.34007 | 24700 ft | 512 kts | 81° |
| 2026-04-26 00:27 | 33.73918 | -117.29830 | 25015 ft | 515 kts | 81° |
| 2026-04-26 00:27 | 33.74680 | -117.25620 | 25321 ft | 515 kts | 85° |
| 2026-04-26 00:27 | 33.75053 | -117.21358 | 25639 ft | 512 kts | 94° |
| 2026-04-26 00:28 | 33.75004 | -117.17101 | 25960 ft | 511 kts | 97° |
| 2026-04-26 00:28 | 33.74908 | -117.12826 | 26309 ft | 512 kts | 97° |
| 2026-04-26 00:28 | 33.74818 | -117.08536 | 26626 ft | 515 kts | 97° |
| 2026-04-26 00:28 | 33.74733 | -117.04226 | 26942 ft | 517 kts | 97° |
| 2026-04-26 00:29 | 33.74649 | -116.99900 | 27230 ft | 519 kts | 97° |
| 2026-04-26 00:29 | 33.74563 | -116.95612 | 27524 ft | 522 kts | 97° |
| 2026-04-26 00:29 | 33.74472 | -116.91244 | 27809 ft | 524 kts | 97° |
| 2026-04-26 00:29 | 33.74375 | -116.86862 | 28050 ft | 525 kts | 98° |
| 2026-04-26 00:30 | 33.74277 | -116.82483 | 28515 ft | 522 kts | 97° |
| 2026-04-26 00:30 | 33.74180 | -116.78134 | 29005 ft | 520 kts | 97° |
| 2026-04-26 00:30 | 33.74081 | -116.73795 | 29432 ft | 519 kts | 97° |
| 2026-04-26 00:30 | 33.73981 | -116.69472 | 29820 ft | 518 kts | 98° |
| 2026-04-26 00:31 | 33.73876 | -116.65142 | 30167 ft | 518 kts | 98° |
| 2026-04-26 00:31 | 33.73766 | -116.60814 | 30417 ft | 518 kts | 98° |
| 2026-04-26 00:31 | 33.73656 | -116.56492 | 30610 ft | 519 kts | 98° |
| 2026-04-26 00:31 | 33.73545 | -116.52154 | 30882 ft | 520 kts | 98° |
| 2026-04-26 00:32 | 33.73433 | -116.47810 | 31108 ft | 521 kts | 98° |
| 2026-04-26 00:32 | 33.73322 | -116.43450 | 31319 ft | 522 kts | 98° |
| 2026-04-26 00:32 | 33.73095 | -116.34779 | 31789 ft | 523 kts | 98° |
| 2026-04-26 00:33 | 33.72981 | -116.30405 | 32080 ft | 524 kts | 98° |
| 2026-04-26 00:33 | 33.72867 | -116.26034 | 32353 ft | 524 kts | 99° |
| 2026-04-26 00:33 | 33.72751 | -116.21656 | 32548 ft | 526 kts | 99° |
| 2026-04-26 00:33 | 33.72630 | -116.17247 | 32775 ft | 528 kts | 99° |
| 2026-04-26 00:34 | 33.72508 | -116.12842 | 33021 ft | 529 kts | 98° |
| 2026-04-26 00:34 | 33.72661 | -116.08386 | 33284 ft | 538 kts | 89° |
| 2026-04-26 00:34 | 33.73338 | -116.03952 | 33543 ft | 545 kts | 79° |
| 2026-04-26 00:34 | 33.74490 | -115.99590 | 33751 ft | 548 kts | 75° |
| 2026-04-26 00:35 | 33.75713 | -115.95243 | 33966 ft | 549 kts | 75° |
| 2026-04-26 00:35 | 33.76930 | -115.90899 | 34193 ft | 548 kts | 75° |
| 2026-04-26 00:35 | 33.78121 | -115.86618 | 34434 ft | 547 kts | 75° |
| 2026-04-26 00:35 | 33.79321 | -115.82277 | 34660 ft | 547 kts | 75° |
| 2026-04-26 00:36 | 33.80520 | -115.77929 | 34769 ft | 548 kts | 75° |
| 2026-04-26 00:36 | 33.81715 | -115.73581 | 34785 ft | 548 kts | 75° |
| 2026-04-26 00:36 | 33.84100 | -115.64884 | 34783 ft | 547 kts | 75° |
| 2026-04-26 00:37 | 33.86488 | -115.56183 | 34773 ft | 549 kts | 75° |
| 2026-04-26 00:37 | 33.88859 | -115.47513 | 34757 ft | 549 kts | 75° |
| 2026-04-26 00:38 | 33.91239 | -115.38781 | 34757 ft | 549 kts | 75° |
| 2026-04-26 00:38 | 33.93615 | -115.30040 | 34754 ft | 550 kts | 75° |
| 2026-04-26 00:39 | 33.95985 | -115.21285 | 34764 ft | 550 kts | 75° |
| 2026-04-26 00:39 | 33.98356 | -115.12513 | 34763 ft | 551 kts | 75° |
| 2026-04-26 00:40 | 34.00697 | -115.03794 | 34773 ft | 550 kts | 75° |
| 2026-04-26 00:40 | 34.03048 | -114.95010 | 34759 ft | 551 kts | 75° |
| 2026-04-26 00:41 | 34.05406 | -114.86227 | 34771 ft | 551 kts | 75° |
| 2026-04-26 00:41 | 34.07754 | -114.77440 | 34777 ft | 551 kts | 75° |
| 2026-04-26 00:42 | 34.10088 | -114.68641 | 34774 ft | 551 kts | 75° |
| 2026-04-26 00:42 | 34.12473 | -114.59912 | 34765 ft | 551 kts | 74° |
| 2026-04-26 00:43 | 34.14982 | -114.51174 | 34750 ft | 551 kts | 73° |
| 2026-04-26 00:43 | 34.17494 | -114.42437 | 34750 ft | 551 kts | 73° |
| 2026-04-26 00:44 | 34.19966 | -114.33677 | 34732 ft | 551 kts | 74° |
| 2026-04-26 00:44 | 34.22392 | -114.24959 | 34755 ft | 551 kts | 74° |
| 2026-04-26 00:45 | 34.24826 | -114.16188 | 34750 ft | 551 kts | 74° |
| 2026-04-26 00:45 | 34.27265 | -114.07406 | 34757 ft | 551 kts | 74° |
| 2026-04-26 00:46 | 34.29710 | -113.98621 | 34756 ft | 551 kts | 73° |
| 2026-04-26 00:46 | 34.32147 | -113.89834 | 34774 ft | 551 kts | 74° |
| 2026-04-26 00:47 | 34.34537 | -113.81102 | 34770 ft | 550 kts | 74° |
| 2026-04-26 00:47 | 34.36940 | -113.72305 | 34762 ft | 550 kts | 73° |
| 2026-04-26 00:48 | 34.39346 | -113.63531 | 34766 ft | 549 kts | 73° |
| 2026-04-26 00:48 | 34.41750 | -113.54751 | 34777 ft | 549 kts | 74° |
| 2026-04-26 00:49 | 34.44143 | -113.45968 | 34771 ft | 549 kts | 74° |
| 2026-04-26 00:49 | 34.46507 | -113.37245 | 34774 ft | 548 kts | 73° |
| 2026-04-26 00:50 | 34.48876 | -113.28452 | 34781 ft | 548 kts | 74° |
| 2026-04-26 00:50 | 34.51247 | -113.19654 | 34791 ft | 548 kts | 73° |
| 2026-04-26 00:51 | 34.53617 | -113.10852 | 34796 ft | 548 kts | 74° |
| 2026-04-26 00:51 | 34.55955 | -113.02103 | 34788 ft | 548 kts | 74° |
| 2026-04-26 00:52 | 34.58320 | -112.93244 | 34802 ft | 548 kts | 74° |
| 2026-04-26 00:52 | 34.60671 | -112.84439 | 34814 ft | 548 kts | 74° |
| 2026-04-26 00:53 | 34.63004 | -112.75624 | 34809 ft | 548 kts | 74° |
| 2026-04-26 00:53 | 34.65312 | -112.66872 | 34819 ft | 548 kts | 73° |
| 2026-04-26 00:54 | 34.67643 | -112.58002 | 34830 ft | 548 kts | 74° |
| 2026-04-26 00:54 | 34.69942 | -112.49246 | 34979 ft | 547 kts | 74° |
| 2026-04-26 00:55 | 34.72151 | -112.40391 | 34974 ft | 547 kts | 76° |
| 2026-04-26 00:55 | 34.74150 | -112.31470 | 34955 ft | 547 kts | 77° |
| 2026-04-26 00:56 | 34.76124 | -112.22523 | 34917 ft | 548 kts | 77° |
| 2026-04-26 00:56 | 34.78151 | -112.13588 | 34880 ft | 548 kts | 76° |
| 2026-04-26 00:57 | 34.80198 | -112.04678 | 34892 ft | 548 kts | 76° |
| 2026-04-26 00:57 | 34.82246 | -111.95727 | 34934 ft | 548 kts | 76° |
| 2026-04-26 00:58 | 34.84270 | -111.86775 | 34963 ft | 549 kts | 76° |
| 2026-04-26 00:58 | 34.86282 | -111.77810 | 34931 ft | 549 kts | 76° |
| 2026-04-26 00:59 | 34.88294 | -111.68837 | 34968 ft | 548 kts | 76° |
| 2026-04-26 00:59 | 34.90291 | -111.59885 | 34945 ft | 547 kts | 76° |
| 2026-04-26 01:00 | 34.92282 | -111.50945 | 34870 ft | 547 kts | 76° |
| 2026-04-26 01:00 | 34.94252 | -111.42055 | 34871 ft | 546 kts | 76° |
| 2026-04-26 01:01 | 34.96230 | -111.33111 | 34869 ft | 546 kts | 76° |
| 2026-04-26 01:01 | 34.98202 | -111.24169 | 34863 ft | 546 kts | 76° |
| 2026-04-26 01:02 | 35.00159 | -111.15218 | 34864 ft | 546 kts | 76° |
| 2026-04-26 01:02 | 35.02106 | -111.06273 | 34892 ft | 546 kts | 76° |
| 2026-04-26 01:03 | 35.04052 | -110.97327 | 34915 ft | 545 kts | 76° |
| 2026-04-26 01:03 | 35.05992 | -110.88388 | 34946 ft | 545 kts | 76° |
| 2026-04-26 01:04 | 35.07925 | -110.79447 | 34974 ft | 545 kts | 76° |
| 2026-04-26 01:04 | 35.09851 | -110.70486 | 34962 ft | 546 kts | 76° |
| 2026-04-26 01:05 | 35.11776 | -110.61497 | 34839 ft | 547 kts | 76° |
| 2026-04-26 01:05 | 35.13692 | -110.52506 | 34831 ft | 547 kts | 76° |
| 2026-04-26 01:06 | 35.15604 | -110.43509 | 34821 ft | 547 kts | 76° |
| 2026-04-26 01:06 | 35.17515 | -110.34503 | 34819 ft | 547 kts | 76° |
| 2026-04-26 01:07 | 35.19416 | -110.25500 | 34822 ft | 547 kts | 76° |
| 2026-04-26 01:07 | 35.21309 | -110.16479 | 34827 ft | 548 kts | 77° |
| 2026-04-26 01:08 | 35.23193 | -110.07454 | 34832 ft | 548 kts | 76° |
| 2026-04-26 01:08 | 35.25072 | -109.98426 | 34840 ft | 548 kts | 77° |
| 2026-04-26 01:09 | 35.26947 | -109.89370 | 34842 ft | 549 kts | 77° |
| 2026-04-26 01:09 | 35.28820 | -109.80313 | 34849 ft | 549 kts | 77° |
| 2026-04-26 01:10 | 35.30687 | -109.71247 | 34855 ft | 549 kts | 77° |
| 2026-04-26 01:10 | 35.32541 | -109.62183 | 34854 ft | 548 kts | 77° |
| 2026-04-26 01:11 | 35.34392 | -109.53123 | 34855 ft | 548 kts | 77° |
| 2026-04-26 01:11 | 35.36238 | -109.44065 | 34839 ft | 548 kts | 76° |
| 2026-04-26 01:12 | 35.37765 | -109.36527 | 34841 ft | 548 kts | 76° |
| 2026-04-26 01:12 | 35.39893 | -109.25983 | 34892 ft | 548 kts | 77° |
| 2026-04-26 01:13 | 35.41419 | -109.18386 | 34922 ft | 549 kts | 77° |
| 2026-04-26 01:13 | 35.43237 | -109.09298 | 34933 ft | 549 kts | 76° |
| 2026-04-26 01:14 | 35.45042 | -109.00206 | 34962 ft | 549 kts | 77° |
| 2026-04-26 01:14 | 35.46840 | -108.91114 | 35022 ft | 549 kts | 76° |
| 2026-04-26 01:15 | 35.48771 | -108.82055 | 35033 ft | 548 kts | 72° |
| 2026-04-26 01:15 | 35.51224 | -108.73210 | 34839 ft | 546 kts | 68° |
| 2026-04-26 01:16 | 35.53824 | -108.64473 | 34844 ft | 544 kts | 69° |
| 2026-04-26 01:16 | 35.56285 | -108.55695 | 34852 ft | 544 kts | 71° |
| 2026-04-26 01:17 | 35.58619 | -108.46863 | 34851 ft | 543 kts | 71° |
| 2026-04-26 01:17 | 35.60934 | -108.38095 | 34842 ft | 542 kts | 71° |
| 2026-04-26 01:18 | 35.63310 | -108.29239 | 34840 ft | 542 kts | 70° |
| 2026-04-26 01:18 | 35.65667 | -108.20493 | 34838 ft | 542 kts | 71° |
| 2026-04-26 01:19 | 35.68018 | -108.11694 | 34843 ft | 542 kts | 71° |
| 2026-04-26 01:19 | 35.70358 | -108.02868 | 34842 ft | 542 kts | 71° |
| 2026-04-26 01:20 | 35.72693 | -107.94049 | 34846 ft | 542 kts | 71° |
| 2026-04-26 01:20 | 35.75028 | -107.85200 | 34847 ft | 542 kts | 71° |
| 2026-04-26 01:21 | 35.77354 | -107.76375 | 34849 ft | 542 kts | 71° |
| 2026-04-26 01:21 | 35.79675 | -107.67531 | 34851 ft | 542 kts | 71° |
| 2026-04-26 01:22 | 35.81983 | -107.58679 | 34849 ft | 542 kts | 71° |
| 2026-04-26 01:22 | 35.84285 | -107.49826 | 34847 ft | 543 kts | 71° |
| 2026-04-26 01:23 | 35.86583 | -107.40957 | 34851 ft | 543 kts | 71° |
| 2026-04-26 01:23 | 35.88875 | -107.32080 | 34840 ft | 542 kts | 71° |
| 2026-04-26 01:24 | 35.91160 | -107.23217 | 34840 ft | 542 kts | 71° |
| 2026-04-26 01:24 | 35.93452 | -107.14344 | 34835 ft | 542 kts | 71° |
| 2026-04-26 01:25 | 35.95729 | -107.05472 | 34835 ft | 542 kts | 71° |
| 2026-04-26 01:25 | 35.97993 | -106.96590 | 34835 ft | 542 kts | 71° |
| 2026-04-26 01:26 | 36.00247 | -106.87701 | 34825 ft | 543 kts | 71° |
| 2026-04-26 01:26 | 36.02502 | -106.78807 | 34820 ft | 542 kts | 72° |
| 2026-04-26 01:27 | 36.04746 | -106.69907 | 34811 ft | 543 kts | 72° |
| 2026-04-26 01:27 | 36.06986 | -106.60998 | 34841 ft | 542 kts | 72° |
| 2026-04-26 01:28 | 36.09223 | -106.52100 | 34868 ft | 541 kts | 72° |
| 2026-04-26 01:28 | 36.11448 | -106.43217 | 34873 ft | 539 kts | 72° |
| 2026-04-26 01:29 | 36.13647 | -106.34364 | 34863 ft | 538 kts | 72° |
| 2026-04-26 01:29 | 36.15829 | -106.25557 | 34849 ft | 538 kts | 72° |
| 2026-04-26 01:30 | 36.18013 | -106.16709 | 34811 ft | 537 kts | 72° |
| 2026-04-26 01:30 | 36.20187 | -106.07853 | 34769 ft | 537 kts | 72° |
| 2026-04-26 01:31 | 36.22364 | -105.98986 | 34761 ft | 538 kts | 71° |
| 2026-04-26 01:31 | 36.24530 | -105.90125 | 34770 ft | 537 kts | 72° |
| 2026-04-26 01:32 | 36.26691 | -105.81262 | 34773 ft | 537 kts | 71° |
| 2026-04-26 01:32 | 36.28846 | -105.72405 | 34782 ft | 537 kts | 72° |
| 2026-04-26 01:33 | 36.30996 | -105.63528 | 34816 ft | 537 kts | 72° |
| 2026-04-26 01:33 | 36.33128 | -105.54662 | 34906 ft | 536 kts | 72° |
| 2026-04-26 01:34 | 36.35261 | -105.45809 | 34976 ft | 535 kts | 72° |
| 2026-04-26 01:34 | 36.37380 | -105.36970 | 35038 ft | 535 kts | 72° |
| 2026-04-26 01:35 | 36.39482 | -105.28119 | 35046 ft | 534 kts | 72° |
| 2026-04-26 01:35 | 36.41580 | -105.19280 | 35047 ft | 533 kts | 72° |
| 2026-04-26 01:36 | 36.43673 | -105.10467 | 34985 ft | 532 kts | 72° |
| 2026-04-26 01:37 | 36.46800 | -104.97267 | 34737 ft | 530 kts | 72° |
| 2026-04-26 01:37 | 36.48868 | -104.88484 | 34735 ft | 529 kts | 69° |
| 2026-04-26 01:38 | 36.51780 | -104.80176 | 34727 ft | 526 kts | 62° |
| 2026-04-26 01:38 | 36.54907 | -104.71934 | 34724 ft | 527 kts | 62° |
| 2026-04-26 01:38 | 36.56467 | -104.67806 | 34832 ft | 527 kts | 62° |
| 2026-04-26 01:39 | 36.58018 | -104.63682 | 34840 ft | 527 kts | 62° |
| 2026-04-26 01:39 | 36.61118 | -104.55405 | 34865 ft | 526 kts | 62° |
| 2026-04-26 01:40 | 36.64199 | -104.47147 | 34885 ft | 526 kts | 62° |
| 2026-04-26 01:40 | 36.67272 | -104.38893 | 34878 ft | 525 kts | 62° |
| 2026-04-26 01:41 | 36.70338 | -104.30643 | 34850 ft | 525 kts | 62° |
| 2026-04-26 01:41 | 36.73392 | -104.22384 | 34808 ft | 524 kts | 62° |
| 2026-04-26 01:42 | 36.76446 | -104.14115 | 34772 ft | 525 kts | 62° |
| 2026-04-26 01:42 | 36.79512 | -104.05833 | 34745 ft | 526 kts | 62° |
| 2026-04-26 01:43 | 36.82567 | -103.97537 | 34745 ft | 526 kts | 62° |
| 2026-04-26 01:43 | 36.85609 | -103.89226 | 34768 ft | 527 kts | 62° |
| 2026-04-26 01:44 | 36.88660 | -103.80876 | 34772 ft | 530 kts | 62° |
| 2026-04-26 01:44 | 36.91735 | -103.72460 | 34785 ft | 533 kts | 62° |
| 2026-04-26 01:45 | 36.94801 | -103.64038 | 34800 ft | 532 kts | 62° |
| 2026-04-26 01:45 | 36.97861 | -103.55603 | 34810 ft | 532 kts | 62° |
| 2026-04-26 01:46 | 37.00907 | -103.47177 | 34786 ft | 531 kts | 62° |
| 2026-04-26 01:46 | 37.03925 | -103.38814 | 34805 ft | 530 kts | 62° |
| 2026-04-26 01:47 | 37.06957 | -103.30389 | 34816 ft | 529 kts | 62° |
| 2026-04-26 01:47 | 37.09967 | -103.21980 | 34818 ft | 529 kts | 62° |
| 2026-04-26 01:48 | 37.12972 | -103.13580 | 34817 ft | 528 kts | 62° |
| 2026-04-26 01:48 | 37.15970 | -103.05190 | 34811 ft | 527 kts | 62° |
| 2026-04-26 01:49 | 37.18955 | -102.96799 | 34814 ft | 526 kts | 62° |
| 2026-04-26 01:49 | 37.21927 | -102.88412 | 34821 ft | 526 kts | 62° |
| 2026-04-26 01:50 | 37.24898 | -102.80027 | 34825 ft | 526 kts | 62° |
| 2026-04-26 01:50 | 37.27862 | -102.71632 | 34836 ft | 526 kts | 62° |
| 2026-04-26 01:51 | 37.30818 | -102.63214 | 34827 ft | 526 kts | 63° |
| 2026-04-26 01:51 | 37.33766 | -102.54801 | 34825 ft | 526 kts | 63° |
| 2026-04-26 01:52 | 37.36716 | -102.46394 | 34826 ft | 526 kts | 62° |
| 2026-04-26 01:52 | 37.39658 | -102.37971 | 34816 ft | 526 kts | 63° |
| 2026-04-26 01:53 | 37.42087 | -102.30966 | 34828 ft | 525 kts | 63° |
| 2026-04-26 01:53 | 37.45013 | -102.22545 | 34828 ft | 525 kts | 63° |
| 2026-04-26 01:54 | 37.47933 | -102.14118 | 34839 ft | 525 kts | 63° |
| 2026-04-26 01:54 | 37.50841 | -102.05680 | 34858 ft | 525 kts | 63° |
| 2026-04-26 01:55 | 37.53742 | -101.97241 | 34877 ft | 525 kts | 63° |
| 2026-04-26 01:55 | 37.56633 | -101.88805 | 34896 ft | 524 kts | 63° |
| 2026-04-26 01:56 | 37.59528 | -101.80378 | 34906 ft | 523 kts | 63° |
| 2026-04-26 01:56 | 37.62384 | -101.72028 | 34886 ft | 520 kts | 63° |
| 2026-04-26 01:57 | 37.65236 | -101.63631 | 34883 ft | 520 kts | 63° |
| 2026-04-26 01:57 | 37.68089 | -101.55227 | 34875 ft | 520 kts | 63° |
| 2026-04-26 01:58 | 37.70935 | -101.46831 | 34879 ft | 520 kts | 63° |
| 2026-04-26 01:58 | 37.73771 | -101.38427 | 34881 ft | 520 kts | 63° |
| 2026-04-26 01:59 | 37.76595 | -101.30027 | 34882 ft | 520 kts | 63° |
| 2026-04-26 01:59 | 37.79410 | -101.21607 | 34854 ft | 520 kts | 63° |
| 2026-04-26 02:00 | 37.82223 | -101.13187 | 34855 ft | 519 kts | 63° |
| 2026-04-26 02:00 | 37.85032 | -101.04770 | 34869 ft | 519 kts | 63° |
| 2026-04-26 02:01 | 37.87842 | -100.96349 | 34891 ft | 520 kts | 63° |
| 2026-04-26 02:01 | 37.90639 | -100.87916 | 34903 ft | 520 kts | 63° |
| 2026-04-26 02:02 | 37.93428 | -100.79469 | 34916 ft | 520 kts | 63° |
| 2026-04-26 02:02 | 37.96210 | -100.71011 | 34915 ft | 519 kts | 64° |
| 2026-04-26 02:03 | 37.98984 | -100.62555 | 34863 ft | 519 kts | 64° |
| 2026-04-26 02:03 | 38.01759 | -100.54095 | 34881 ft | 520 kts | 63° |
| 2026-04-26 02:04 | 38.04533 | -100.45629 | 34875 ft | 520 kts | 63° |
| 2026-04-26 02:04 | 38.07301 | -100.37142 | 34878 ft | 520 kts | 64° |
| 2026-04-26 02:05 | 38.10060 | -100.28656 | 34876 ft | 520 kts | 64° |
| 2026-04-26 02:05 | 38.12817 | -100.20148 | 34871 ft | 520 kts | 63° |
| 2026-04-26 02:06 | 38.15535 | -100.11705 | 34882 ft | 519 kts | 63° |
| 2026-04-26 02:06 | 38.18281 | -100.03156 | 34878 ft | 519 kts | 64° |
| 2026-04-26 02:07 | 38.21000 | -99.94662 | 34876 ft | 519 kts | 64° |
| 2026-04-26 02:07 | 38.23703 | -99.86213 | 34878 ft | 518 kts | 64° |
| 2026-04-26 02:08 | 38.26443 | -99.77667 | 34890 ft | 518 kts | 64° |
| 2026-04-26 02:08 | 38.29131 | -99.69244 | 34883 ft | 517 kts | 64° |
| 2026-04-26 02:09 | 38.31827 | -99.60761 | 34877 ft | 516 kts | 64° |
| 2026-04-26 02:09 | 38.34506 | -99.52281 | 34861 ft | 516 kts | 64° |
| 2026-04-26 02:10 | 38.37175 | -99.43800 | 34859 ft | 515 kts | 64° |
| 2026-04-26 02:10 | 38.39833 | -99.35313 | 34874 ft | 515 kts | 64° |
| 2026-04-26 02:11 | 38.42496 | -99.26836 | 34876 ft | 515 kts | 64° |
| 2026-04-26 02:11 | 38.45152 | -99.18354 | 34873 ft | 515 kts | 64° |
| 2026-04-26 02:12 | 38.47798 | -99.09856 | 34883 ft | 515 kts | 64° |
| 2026-04-26 02:12 | 38.50431 | -99.01357 | 34891 ft | 515 kts | 64° |
| 2026-04-26 02:13 | 38.53061 | -98.92860 | 34894 ft | 514 kts | 64° |
| 2026-04-26 02:13 | 38.55687 | -98.84349 | 34890 ft | 514 kts | 64° |
| 2026-04-26 02:14 | 38.58303 | -98.75850 | 34886 ft | 514 kts | 64° |
| 2026-04-26 02:14 | 38.60902 | -98.67392 | 34878 ft | 514 kts | 64° |
| 2026-04-26 02:15 | 38.63506 | -98.58866 | 34854 ft | 514 kts | 65° |
| 2026-04-26 02:15 | 38.66094 | -98.50340 | 34853 ft | 514 kts | 65° |
| 2026-04-26 02:16 | 38.68682 | -98.41809 | 34843 ft | 514 kts | 65° |
| 2026-04-26 02:16 | 38.71275 | -98.33276 | 34836 ft | 513 kts | 64° |
| 2026-04-26 02:17 | 38.73856 | -98.24752 | 34839 ft | 513 kts | 64° |
| 2026-04-26 02:17 | 38.76421 | -98.16222 | 34842 ft | 513 kts | 65° |
| 2026-04-26 02:18 | 38.78980 | -98.07688 | 34843 ft | 513 kts | 64° |
| 2026-04-26 02:18 | 38.81552 | -97.99163 | 34851 ft | 512 kts | 64° |
| 2026-04-26 02:19 | 38.84092 | -97.90618 | 34866 ft | 512 kts | 65° |
| 2026-04-26 02:19 | 38.86611 | -97.82081 | 34897 ft | 511 kts | 65° |
| 2026-04-26 02:20 | 38.89137 | -97.73562 | 34889 ft | 510 kts | 65° |
| 2026-04-26 02:20 | 38.91658 | -97.65044 | 34878 ft | 510 kts | 65° |
| 2026-04-26 02:21 | 38.94110 | -97.56501 | 34877 ft | 510 kts | 66° |
| 2026-04-26 02:21 | 38.96380 | -97.47886 | 34839 ft | 509 kts | 68° |
| 2026-04-26 02:22 | 38.98586 | -97.39268 | 34847 ft | 507 kts | 67° |
| 2026-04-26 02:22 | 39.00831 | -97.30681 | 34837 ft | 506 kts | 67° |
| 2026-04-26 02:23 | 39.03101 | -97.22110 | 34834 ft | 506 kts | 67° |
| 2026-04-26 02:23 | 39.05365 | -97.13528 | 34841 ft | 506 kts | 67° |
| 2026-04-26 02:24 | 39.07609 | -97.04936 | 34855 ft | 506 kts | 67° |
| 2026-04-26 02:24 | 39.09835 | -96.96329 | 34870 ft | 506 kts | 67° |
| 2026-04-26 02:25 | 39.12059 | -96.87738 | 34882 ft | 506 kts | 67° |
| 2026-04-26 02:25 | 39.14284 | -96.79137 | 34892 ft | 506 kts | 67° |
| 2026-04-26 02:26 | 39.16498 | -96.70549 | 34896 ft | 504 kts | 67° |
| 2026-04-26 02:26 | 39.18696 | -96.61998 | 34883 ft | 502 kts | 67° |
| 2026-04-26 02:27 | 39.20885 | -96.53445 | 34809 ft | 503 kts | 67° |
| 2026-04-26 02:27 | 39.23065 | -96.44878 | 34828 ft | 503 kts | 67° |
| 2026-04-26 02:28 | 39.25230 | -96.36308 | 34844 ft | 502 kts | 67° |
| 2026-04-26 02:28 | 39.27388 | -96.27761 | 34842 ft | 500 kts | 67° |
| 2026-04-26 02:29 | 39.29539 | -96.19226 | 34846 ft | 500 kts | 68° |
| 2026-04-26 02:29 | 39.31667 | -96.10748 | 34841 ft | 499 kts | 68° |
| 2026-04-26 02:30 | 39.33804 | -96.02227 | 34859 ft | 498 kts | 68° |
| 2026-04-26 02:30 | 39.35932 | -95.93723 | 34866 ft | 497 kts | 68° |
| 2026-04-26 02:31 | 39.38042 | -95.85217 | 34868 ft | 497 kts | 68° |
| 2026-04-26 02:31 | 39.40140 | -95.76707 | 34867 ft | 497 kts | 68° |
| 2026-04-26 02:32 | 39.42239 | -95.68197 | 34878 ft | 496 kts | 70° |
| 2026-04-26 02:32 | 39.44330 | -95.59693 | 34877 ft | 495 kts | 70° |
| 2026-04-26 02:33 | 39.46416 | -95.51187 | 34885 ft | 496 kts | 71° |
| 2026-04-26 02:33 | 39.48500 | -95.42673 | 34878 ft | 496 kts | 71° |
| 2026-04-26 02:34 | 39.50569 | -95.34158 | 34874 ft | 496 kts | 71° |
| 2026-04-26 02:34 | 39.52293 | -95.27054 | 34876 ft | 497 kts | 71° |
| 2026-04-26 02:35 | 39.54363 | -95.18506 | 34865 ft | 498 kts | 71° |
| 2026-04-26 02:35 | 39.56429 | -95.09934 | 34885 ft | 499 kts | 71° |
| 2026-04-26 02:36 | 39.58489 | -95.01346 | 34893 ft | 499 kts | 71° |
| 2026-04-26 02:36 | 39.60537 | -94.92749 | 34905 ft | 500 kts | 72° |
| 2026-04-26 02:37 | 39.62596 | -94.84100 | 34879 ft | 501 kts | 72° |
| 2026-04-26 02:37 | 39.64655 | -94.75460 | 34887 ft | 502 kts | 72° |
| 2026-04-26 02:38 | 39.66702 | -94.66795 | 34887 ft | 502 kts | 72° |
| 2026-04-26 02:38 | 39.68747 | -94.58112 | 34915 ft | 503 kts | 72° |
| 2026-04-26 02:39 | 39.70775 | -94.49422 | 34944 ft | 503 kts | 71° |
| 2026-04-26 02:39 | 39.72819 | -94.40723 | 34970 ft | 504 kts | 71° |
| 2026-04-26 02:40 | 39.74857 | -94.31998 | 34955 ft | 506 kts | 71° |
| 2026-04-26 02:40 | 39.76874 | -94.23257 | 34957 ft | 508 kts | 71° |
| 2026-04-26 02:41 | 39.78905 | -94.14450 | 34958 ft | 509 kts | 71° |
| 2026-04-26 02:41 | 39.80932 | -94.05615 | 34944 ft | 510 kts | 71° |
| 2026-04-26 02:42 | 39.82957 | -93.96778 | 34926 ft | 510 kts | 71° |
| 2026-04-26 02:42 | 39.84989 | -93.87929 | 34914 ft | 510 kts | 71° |
| 2026-04-26 02:43 | 39.88015 | -93.74645 | 34925 ft | 509 kts | 71° |
| 2026-04-26 02:43 | 39.90008 | -93.65799 | 34938 ft | 509 kts | 71° |
| 2026-04-26 02:44 | 39.91999 | -93.56951 | 34929 ft | 508 kts | 71° |
| 2026-04-26 02:44 | 39.93981 | -93.48114 | 34938 ft | 508 kts | 71° |
| 2026-04-26 02:45 | 39.95959 | -93.39269 | 34937 ft | 508 kts | 71° |
| 2026-04-26 02:45 | 39.97935 | -93.30431 | 34941 ft | 508 kts | 71° |
| 2026-04-26 02:46 | 39.99897 | -93.21571 | 34954 ft | 509 kts | 71° |
| 2026-04-26 02:46 | 40.01838 | -93.12740 | 34959 ft | 509 kts | 71° |
| 2026-04-26 02:47 | 40.03782 | -93.03861 | 34962 ft | 509 kts | 71° |
| 2026-04-26 02:47 | 40.05728 | -92.94980 | 34973 ft | 508 kts | 71° |
| 2026-04-26 02:48 | 40.07673 | -92.86112 | 34978 ft | 507 kts | 71° |
| 2026-04-26 02:48 | 40.09600 | -92.77258 | 34963 ft | 507 kts | 71° |
| 2026-04-26 02:49 | 40.11519 | -92.68393 | 34958 ft | 507 kts | 71° |
| 2026-04-26 02:49 | 40.13488 | -92.59581 | 34966 ft | 503 kts | 66° |
| 2026-04-26 02:50 | 40.16364 | -92.51309 | 34955 ft | 498 kts | 60° |
| 2026-04-26 02:50 | 40.19332 | -92.43119 | 34960 ft | 498 kts | 60° |
| 2026-04-26 02:51 | 40.22291 | -92.34934 | 34969 ft | 498 kts | 60° |
| 2026-04-26 02:51 | 40.25248 | -92.26739 | 34993 ft | 497 kts | 61° |
| 2026-04-26 02:52 | 40.28185 | -92.18562 | 35003 ft | 496 kts | 61° |
| 2026-04-26 02:52 | 40.31111 | -92.10381 | 35010 ft | 495 kts | 61° |
| 2026-04-26 02:53 | 40.34025 | -92.02200 | 34997 ft | 495 kts | 61° |
| 2026-04-26 02:53 | 40.36933 | -91.94030 | 35003 ft | 495 kts | 61° |
| 2026-04-26 02:54 | 40.39837 | -91.85852 | 35015 ft | 494 kts | 61° |
| 2026-04-26 02:54 | 40.42732 | -91.77684 | 35018 ft | 493 kts | 62° |
| 2026-04-26 02:55 | 40.45568 | -91.69465 | 35016 ft | 493 kts | 62° |
| 2026-04-26 02:55 | 40.48330 | -91.61226 | 35026 ft | 493 kts | 63° |
| 2026-04-26 02:56 | 40.51094 | -91.52982 | 35017 ft | 492 kts | 63° |
| 2026-04-26 02:56 | 40.53868 | -91.44769 | 35020 ft | 490 kts | 63° |
| 2026-04-26 02:57 | 40.56631 | -91.36592 | 35026 ft | 489 kts | 62° |
| 2026-04-26 02:57 | 40.59421 | -91.28448 | 35028 ft | 488 kts | 62° |
| 2026-04-26 02:58 | 40.62216 | -91.20316 | 35023 ft | 487 kts | 62° |
| 2026-04-26 02:58 | 40.64996 | -91.12156 | 35031 ft | 487 kts | 62° |
| 2026-04-26 02:59 | 40.67752 | -91.04018 | 35029 ft | 486 kts | 62° |
| 2026-04-26 02:59 | 40.70505 | -90.95878 | 35026 ft | 486 kts | 63° |
| 2026-04-26 03:00 | 40.73226 | -90.87788 | 35034 ft | 485 kts | 63° |
| 2026-04-26 03:00 | 40.75965 | -90.79643 | 35036 ft | 485 kts | 63° |
| 2026-04-26 03:01 | 40.78697 | -90.71507 | 35043 ft | 485 kts | 63° |
| 2026-04-26 03:01 | 40.81419 | -90.63349 | 35055 ft | 485 kts | 63° |
| 2026-04-26 03:02 | 40.84130 | -90.55195 | 35066 ft | 485 kts | 63° |
| 2026-04-26 03:02 | 40.86862 | -90.47035 | 35073 ft | 485 kts | 63° |
| 2026-04-26 03:03 | 40.89590 | -90.38891 | 35072 ft | 485 kts | 63° |
| 2026-04-26 03:03 | 40.92310 | -90.30722 | 35092 ft | 484 kts | 63° |
| 2026-04-26 03:04 | 40.95003 | -90.22564 | 35075 ft | 484 kts | 63° |
| 2026-04-26 03:04 | 40.97669 | -90.14455 | 35067 ft | 483 kts | 63° |
| 2026-04-26 03:05 | 41.00353 | -90.06302 | 35064 ft | 483 kts | 63° |
| 2026-04-26 03:05 | 41.03035 | -89.98162 | 35055 ft | 482 kts | 63° |
| 2026-04-26 03:06 | 41.05711 | -89.90033 | 35062 ft | 480 kts | 63° |
| 2026-04-26 03:06 | 41.08375 | -89.81976 | 35028 ft | 469 kts | 63° |
| 2026-04-26 03:07 | 41.09670 | -89.78059 | 34819 ft | 460 kts | 63° |
| 2026-04-26 03:07 | 41.10943 | -89.74197 | 34471 ft | 455 kts | 63° |
| 2026-04-26 03:07 | 41.12199 | -89.70368 | 34096 ft | 451 kts | 63° |
| 2026-04-26 03:07 | 41.13448 | -89.66547 | 33202 ft | 457 kts | 63° |
| 2026-04-26 03:08 | 41.14731 | -89.62632 | 32228 ft | 465 kts | 64° |
| 2026-04-26 03:08 | 41.16023 | -89.58710 | 31600 ft | 464 kts | 63° |
| 2026-04-26 03:08 | 41.17408 | -89.54855 | 31064 ft | 460 kts | 60° |
| 2026-04-26 03:08 | 41.18888 | -89.51112 | 30569 ft | 455 kts | 59° |
| 2026-04-26 03:09 | 41.20402 | -89.47490 | 29292 ft | 449 kts | 58° |
| 2026-04-26 03:09 | 41.21956 | -89.43857 | 27569 ft | 452 kts | 58° |
| 2026-04-26 03:09 | 41.23502 | -89.40232 | 25876 ft | 452 kts | 59° |
| 2026-04-26 03:09 | 41.25035 | -89.36579 | 24443 ft | 463 kts | 59° |
| 2026-04-26 03:10 | 41.26568 | -89.32839 | 23970 ft | 455 kts | 60° |
| 2026-04-26 03:10 | 41.28035 | -89.29191 | 23604 ft | 444 kts | 60° |
| 2026-04-26 03:10 | 41.29486 | -89.25545 | 22640 ft | 446 kts | 61° |
| 2026-04-26 03:10 | 41.30921 | -89.21925 | 22126 ft | 437 kts | 61° |
| 2026-04-26 03:11 | 41.32312 | -89.18418 | 21992 ft | 417 kts | 61° |
| 2026-04-26 03:11 | 41.33633 | -89.15087 | 21846 ft | 400 kts | 61° |
| 2026-04-26 03:11 | 41.34920 | -89.11864 | 21729 ft | 388 kts | 61° |
| 2026-04-26 03:11 | 41.36168 | -89.08752 | 21605 ft | 375 kts | 61° |
| 2026-04-26 03:12 | 41.37381 | -89.05728 | 21396 ft | 365 kts | 61° |
| 2026-04-26 03:12 | 41.38580 | -89.02735 | 20606 ft | 373 kts | 62° |
| 2026-04-26 03:12 | 41.39819 | -88.99626 | 19627 ft | 387 kts | 63° |
| 2026-04-26 03:12 | 41.41084 | -88.96439 | 18938 ft | 390 kts | 63° |
| 2026-04-26 03:13 | 41.42372 | -88.93194 | 17865 ft | 403 kts | 63° |
| 2026-04-26 03:13 | 41.43690 | -88.89871 | 17262 ft | 402 kts | 63° |
| 2026-04-26 03:13 | 41.44976 | -88.86630 | 17123 ft | 387 kts | 63° |
| 2026-04-26 03:13 | 41.46212 | -88.83516 | 16917 ft | 375 kts | 64° |
| 2026-04-26 03:14 | 41.47438 | -88.80419 | 16051 ft | 381 kts | 64° |
| 2026-04-26 03:14 | 41.48673 | -88.77277 | 15236 ft | 386 kts | 64° |
| 2026-04-26 03:14 | 41.49933 | -88.74068 | 14392 ft | 392 kts | 64° |
| 2026-04-26 03:14 | 41.51197 | -88.70846 | 13670 ft | 393 kts | 64° |
| 2026-04-26 03:15 | 41.52466 | -88.67624 | 12972 ft | 391 kts | 64° |
| 2026-04-26 03:15 | 41.53304 | -88.65501 | 12553 ft | 387 kts | 64° |
| 2026-04-26 03:15 | 41.54539 | -88.62376 | 11383 ft | 375 kts | 63° |
| 2026-04-26 03:15 | 41.55737 | -88.59350 | 10446 ft | 359 kts | 64° |
| 2026-04-26 03:16 | 41.56995 | -88.56634 | 10101 ft | 330 kts | 53° |
| 2026-04-26 03:16 | 41.58923 | -88.53777 | 9617 ft | 299 kts | 50° |
| 2026-04-26 03:16 | 41.60287 | -88.51793 | 9358 ft | 285 kts | 50° |
| 2026-04-26 03:16 | 41.61197 | -88.50465 | 9278 ft | 288 kts | 49° |
| 2026-04-26 03:17 | 41.62541 | -88.48499 | 9154 ft | 286 kts | 49° |
| 2026-04-26 03:17 | 41.63880 | -88.46541 | 9019 ft | 285 kts | 49° |
| 2026-04-26 03:17 | 41.65215 | -88.44595 | 8891 ft | 283 kts | 49° |
| 2026-04-26 03:17 | 41.66543 | -88.42656 | 8760 ft | 282 kts | 49° |
| 2026-04-26 03:18 | 41.67864 | -88.40724 | 8662 ft | 281 kts | 49° |
| 2026-04-26 03:18 | 41.69169 | -88.38818 | 8472 ft | 281 kts | 49° |
| 2026-04-26 03:18 | 41.70505 | -88.36922 | 8250 ft | 279 kts | 44° |
| 2026-04-26 03:18 | 41.72093 | -88.35419 | 8029 ft | 280 kts | 30° |
| 2026-04-26 03:19 | 41.73898 | -88.34429 | 7800 ft | 280 kts | 22° |
| 2026-04-26 03:19 | 41.75721 | -88.33528 | 7570 ft | 278 kts | 23° |
| 2026-04-26 03:19 | 41.77535 | -88.32628 | 7342 ft | 276 kts | 22° |
| 2026-04-26 03:19 | 41.79327 | -88.31733 | 7119 ft | 274 kts | 23° |
| 2026-04-26 03:20 | 41.81115 | -88.30838 | 6906 ft | 273 kts | 23° |
| 2026-04-26 03:20 | 41.82889 | -88.29951 | 6686 ft | 271 kts | 23° |
| 2026-04-26 03:20 | 41.84653 | -88.29071 | 6463 ft | 270 kts | 23° |
| 2026-04-26 03:20 | 41.86407 | -88.28198 | 6234 ft | 269 kts | 23° |
| 2026-04-26 03:21 | 41.88145 | -88.27333 | 6012 ft | 263 kts | 23° |
| 2026-04-26 03:21 | 41.89815 | -88.26499 | 5798 ft | 256 kts | 23° |
| 2026-04-26 03:21 | 41.91467 | -88.25673 | 5601 ft | 250 kts | 24° |
| 2026-04-26 03:21 | 41.93043 | -88.24782 | 5399 ft | 241 kts | 31° |
| 2026-04-26 03:22 | 41.94420 | -88.23565 | 5143 ft | 235 kts | 39° |
| 2026-04-26 03:22 | 41.95597 | -88.22086 | 4868 ft | 228 kts | 56° |
| 2026-04-26 03:22 | 41.96301 | -88.20234 | 4628 ft | 220 kts | 75° |
| 2026-04-26 03:22 | 41.96492 | -88.18225 | 4357 ft | 216 kts | 90° |
| 2026-04-26 03:23 | 41.96497 | -88.16219 | 4068 ft | 213 kts | 89° |
| 2026-04-26 03:23 | 41.96505 | -88.14257 | 3810 ft | 208 kts | 89° |
| 2026-04-26 03:23 | 41.96512 | -88.12337 | 3521 ft | 201 kts | 89° |
| 2026-04-26 03:23 | 41.96519 | -88.10501 | 3269 ft | 194 kts | 89° |
| 2026-04-26 03:24 | 41.96525 | -88.08741 | 3032 ft | 183 kts | 89° |
| 2026-04-26 03:24 | 41.96531 | -88.07107 | 2787 ft | 171 kts | 89° |
| 2026-04-26 03:24 | 41.96536 | -88.05576 | 2558 ft | 154 kts | 89° |
| 2026-04-26 03:24 | 41.96540 | -88.04215 | 2368 ft | 141 kts | 88° |
| 2026-04-26 03:25 | 41.96544 | -88.02923 | 2178 ft | 137 kts | 88° |
| 2026-04-26 03:25 | 41.96548 | -88.01652 | 1991 ft | 135 kts | 87° |
| 2026-04-26 03:25 | 41.96551 | -88.00410 | 1808 ft | 134 kts | 86° |
| 2026-04-26 03:25 | 41.96559 | -87.99160 | 1612 ft | 134 kts | 86° |
| 2026-04-26 03:26 | 41.96569 | -87.97890 | 1433 ft | 135 kts | 88° |
| 2026-04-26 03:26 | 41.96564 | -87.96641 | 1240 ft | 135 kts | 89° |
| 2026-04-26 03:26 | 41.96566 | -87.95371 | 1059 ft | 137 kts | 87° |
| 2026-04-26 03:26 | 41.96566 | -87.94096 | 886 ft | 136 kts | 86° |
| 2026-04-26 03:27 | 41.96570 | -87.92829 | 693 ft | 135 kts | 87° |
| 2026-04-26 03:27 | 41.96575 | -87.91692 | 669 ft | 104 kts | 91° |
| 2026-04-26 03:27 | 41.96575 | -87.90950 | 669 ft | 54 kts | 90° |
| 2026-04-26 03:27 | 41.96600 | -87.90559 | 668 ft | 36 kts | 76° |
| 2026-04-26 03:28 | 41.96699 | -87.90294 | 669 ft | 29 kts | 60° |
| 2026-04-26 03:28 | 41.96740 | -87.90046 | 669 ft | 28 kts | 88° |
| 2026-04-26 03:28 | 41.96740 | -87.89784 | 670 ft | 28 kts | 90° |
| 2026-04-26 03:28 | 41.96741 | -87.89535 | 669 ft | 22 kts | 89° |
| 2026-04-26 03:29 | 41.96772 | -87.89442 | 670 ft | 11 kts | 21° |
| 2026-04-26 03:29 | 41.96870 | -87.89438 | 670 ft | 16 kts | 1° |
| 2026-04-26 03:29 | 41.96985 | -87.89437 | 670 ft | 18 kts | 360° |
| 2026-04-26 03:29 | 41.97103 | -87.89436 | 669 ft | 16 kts | 359° |
| 2026-04-26 03:30 | 41.97207 | -87.89435 | 669 ft | 14 kts | 1° |
| 2026-04-26 03:30 | 41.97299 | -87.89432 | 669 ft | 14 kts | 2° |
| 2026-04-26 03:30 | 41.97402 | -87.89430 | 669 ft | 15 kts | 0° |
| 2026-04-26 03:30 | 41.97477 | -87.89468 | 669 ft | 13 kts | 298° |
| 2026-04-26 03:31 | 41.97529 | -87.89575 | 669 ft | 14 kts | 302° |
| 2026-04-26 03:31 | 41.97560 | -87.89690 | 669 ft | 12 kts | 290° |
| 2026-04-26 03:31 | 41.97587 | -87.89787 | 667 ft | 10 kts | 290° |
| 2026-04-26 03:31 | 41.97576 | -87.89836 | 669 ft | 4 kts | 187° |
| 2026-04-26 03:32 | 41.97553 | -87.89839 | 669 ft | 3 kts | 194° |
| 2026-04-26 03:32 | 41.97541 | -87.89844 | 669 ft | 1 kts | 199° |
| 2026-04-26 03:32 | 41.97538 | -87.89846 | 669 ft | 1 kts | 199° |
| 2026-04-26 03:32 | 41.97532 | -87.89849 | 669 ft | 0 kts | 199° |